Time;durP1;ratioP1;P1;durP2;ratioP2;P2;SDS_P1;SDS_P2;PMS_P1;PMS_P2;Temp;Humidity;BMP_temperature;BMP_pressure;BME280_temperature;BME280_humidity;BME280_pressure;Samples;Min_cycle;Max_cycle;Signal;HPM_P1;HPM_P2
2023/01/24 00:00:59;;;;;;;3.70;3.40;;;;;;;5.22;76.23;95830.66;5117419;28;20206;-75
2023/01/24 00:03:26;;;;;;;3.20;2.90;;;;;;;5.05;76.68;95840.25;5100258;28;20199;-75
2023/01/24 00:05:52;;;;;;;3.08;2.80;;;;;;;4.95;77.54;95836.88;5116935;28;20199;-75
2023/01/24 00:08:22;;;;;;;3.08;2.70;;;;;;;4.98;77.52;95833.53;5117985;28;20192;-75
2023/01/24 00:10:49;;;;;;;3.30;3.08;;;;;;;4.98;77.39;95839.81;5117827;28;20180;-75
2023/01/24 00:13:17;;;;;;;3.40;3.10;;;;;;;4.99;77.43;95846.09;5117027;28;20211;-75
2023/01/24 00:15:44;;;;;;;3.17;2.88;;;;;;;5.05;77.01;95844.91;5117772;28;20191;-75
2023/01/24 00:18:11;;;;;;;3.38;3.08;;;;;;;4.94;77.70;95843.44;5116874;28;20206;-75
2023/01/24 00:20:38;;;;;;;3.38;3.17;;;;;;;4.97;77.37;95840.09;5117679;27;20202;-75
2023/01/24 00:23:04;;;;;;;3.47;3.28;;;;;;;4.92;77.54;95857.41;5117329;27;20180;-76
2023/01/24 00:25:31;;;;;;;3.80;3.50;;;;;;;4.91;77.85;95850.31;5116349;28;20199;-75
2023/01/24 00:27:58;;;;;;;4.10;3.80;;;;;;;4.97;77.56;95849.13;5116583;28;20200;-75
2023/01/24 00:30:26;;;;;;;3.88;3.55;;;;;;;4.88;78.22;95852.84;5116868;28;20260;-75
2023/01/24 00:32:53;;;;;;;3.85;3.55;;;;;;;4.87;78.45;95845.75;5117122;28;20655;-75
2023/01/24 00:35:20;;;;;;;4.28;3.97;;;;;;;4.89;78.42;95849.00;5117117;28;20191;-75
2023/01/24 00:37:47;;;;;;;4.18;3.88;;;;;;;4.81;78.64;95843.09;5116395;28;20195;-75
2023/01/24 00:40:14;;;;;;;3.75;3.45;;;;;;;4.63;78.97;95851.31;5116518;28;20203;-75
2023/01/24 00:42:40;;;;;;;3.35;3.05;;;;;;;4.59;79.45;95848.34;5117218;28;20245;-75
2023/01/24 00:47:53;;;;;;;3.63;3.33;;;;;;;4.52;79.51;95853.38;5116835;28;20520;-75
2023/01/24 00:50:20;;;;;;;3.95;3.65;;;;;;;4.59;79.17;95842.88;5117242;28;20184;-75
2023/01/24 00:52:47;;;;;;;3.63;3.33;;;;;;;4.57;79.17;95853.28;5116306;28;20207;-75
2023/01/24 00:55:14;;;;;;;3.80;3.50;;;;;;;4.56;78.97;95859.88;5117058;27;20184;-75
2023/01/24 00:57:41;;;;;;;3.97;3.58;;;;;;;4.53;79.87;95857.72;5115844;28;20231;-74
2023/01/24 01:00:09;;;;;;;3.97;3.60;;;;;;;4.51;79.13;95862.69;5116550;28;20215;-74
2023/01/24 01:02:35;;;;;;;3.80;3.50;;;;;;;4.56;79.63;95862.59;5116826;28;20203;-74
2023/01/24 01:05:05;;;;;;;3.90;3.60;;;;;;;4.47;79.77;95862.47;5115455;28;20203;-75
2023/01/24 01:07:31;;;;;;;3.90;3.60;;;;;;;4.45;79.60;95872.06;5115706;28;20206;-74
2023/01/24 01:09:58;;;;;;;4.07;3.70;;;;;;;4.47;79.82;95864.38;5116647;28;20180;-74
2023/01/24 01:12:25;;;;;;;3.40;3.10;;;;;;;4.53;79.55;95863.19;5116614;28;20208;-75
2023/01/24 01:14:52;;;;;;;3.58;3.28;;;;;;;4.51;79.05;95866.22;5115881;28;20195;-75
2023/01/24 01:17:19;;;;;;;3.78;3.47;;;;;;;4.52;78.94;95867.03;5116518;27;20199;-74
2023/01/24 01:19:46;;;;;;;3.88;3.58;;;;;;;4.63;79.06;95870.44;5116356;28;20200;-75
2023/01/24 01:22:14;;;;;;;4.10;3.70;;;;;;;4.72;78.72;95863.19;5115822;28;20303;-74
2023/01/24 01:24:41;;;;;;;4.03;3.72;;;;;;;4.66;77.98;95875.31;5115864;28;20211;-75
2023/01/24 01:27:08;;;;;;;3.95;3.65;;;;;;;4.61;78.69;95878.91;5116660;28;20199;-74
2023/01/24 01:29:35;;;;;;;3.80;3.50;;;;;;;4.61;78.10;95872.63;5115478;28;20530;-75
2023/01/24 01:32:02;;;;;;;4.03;3.72;;;;;;;4.62;78.55;95861.44;5115379;28;20208;-74
2023/01/24 01:34:28;;;;;;;4.10;3.78;;;;;;;4.64;78.02;95864.66;5115977;28;20212;-74
2023/01/24 01:36:55;;;;;;;3.30;3.10;;;;;;;4.65;77.68;95870.94;5116290;28;20252;-74
2023/01/24 01:39:23;;;;;;;4.13;3.72;;;;;;;4.67;77.48;95866.81;5115254;28;20200;-74
2023/01/24 01:41:50;;;;;;;3.72;3.42;;;;;;;4.68;77.28;95865.69;5115794;28;20179;-74
2023/01/24 01:44:40;;;;;;;3.88;3.58;;;;;;;4.60;77.72;95858.16;5116086;28;20198;-74
2023/01/24 01:47:16;;;;;;;3.88;3.58;;;;;;;4.61;77.52;95870.72;5115578;28;20206;-74
2023/01/24 01:49:46;;;;;;;4.00;3.70;;;;;;;4.65;77.03;95863.56;5114993;28;20199;-74
2023/01/24 01:52:13;;;;;;;4.40;4.00;;;;;;;4.69;76.97;95870.06;5116142;28;20195;-74
2023/01/24 01:54:45;;;;;;;4.22;3.83;;;;;;;4.73;77.01;95862.09;5115382;28;20207;-74
2023/01/24 01:57:13;;;;;;;3.90;3.60;;;;;;;4.70;76.47;95871.69;5115706;28;20207;-74
2023/01/24 01:59:42;;;;;;;4.40;4.00;;;;;;;4.73;76.34;95864.81;5116118;28;20191;-75
2023/01/24 02:02:09;;;;;;;4.32;3.92;;;;;;;4.71;76.63;95862.38;5115064;28;20206;-75
2023/01/24 02:04:38;;;;;;;4.63;4.22;;;;;;;4.75;76.97;95860.66;5116047;28;20195;-75
2023/01/24 02:07:08;;;;;;;4.07;3.78;;;;;;;4.79;76.06;95860.88;5115600;28;20563;-75
2023/01/24 02:09:37;;;;;;;4.43;4.03;;;;;;;4.80;76.34;95859.78;5115049;28;20195;-75
2023/01/24 02:12:09;;;;;;;4.63;4.20;;;;;;;4.76;76.42;95856.03;5114843;28;20207;-75
2023/01/24 02:17:22;;;;;;;4.05;3.60;;;;;;;4.80;76.07;95852.41;5115178;28;20479;-75
2023/01/24 02:20:02;;;;;;;4.25;3.90;;;;;;;4.87;76.27;95846.56;5114378;28;20195;-75
2023/01/24 02:22:34;;;;;;;4.45;4.05;;;;;;;4.95;76.01;95850.53;5115327;28;20213;-75
2023/01/24 02:25:07;;;;;;;4.20;3.90;;;;;;;4.97;75.94;95859.25;5115550;28;20195;-75
2023/01/24 02:27:35;;;;;;;4.32;3.92;;;;;;;4.99;75.54;95855.09;5114907;28;20199;-75
2023/01/24 02:30:02;;;;;;;4.00;3.70;;;;;;;4.99;75.59;95846.09;5115468;28;20196;-74
2023/01/24 02:32:29;;;;;;;4.03;3.72;;;;;;;4.89;75.72;95859.91;5115343;28;20180;-75
2023/01/24 02:34:56;;;;;;;4.30;3.90;;;;;;;4.80;76.25;95855.13;5115596;28;20195;-74
2023/01/24 02:37:23;;;;;;;3.90;3.60;;;;;;;4.82;76.54;95852.09;5115848;28;20187;-74
2023/01/24 02:39:53;;;;;;;3.90;3.60;;;;;;;4.78;75.58;95857.34;5114560;28;20194;-74
2023/01/24 02:42:23;;;;;;;3.40;3.20;;;;;;;4.65;76.46;95847.19;5115191;28;20557;-74
2023/01/24 02:44:54;;;;;;;3.38;3.08;;;;;;;4.55;77.10;95864.53;5115175;28;20200;-74
2023/01/24 02:47:21;;;;;;;2.95;2.75;;;;;;;4.56;77.19;95871.59;5115270;28;20275;-74
2023/01/24 02:49:47;;;;;;;3.30;3.00;;;;;;;4.62;76.56;95855.16;5115025;28;20538;-74
2023/01/24 02:54:58;;;;;;;3.92;3.58;;;;;;;4.74;76.15;95859.03;5115143;28;20200;-74
2023/01/24 03:00:12;;;;;;;3.45;3.15;;;;;;;4.76;75.86;95856.84;5114715;28;20180;-74
2023/01/24 03:02:38;;;;;;;2.88;2.65;;;;;;;4.54;76.40;95857.44;5115220;28;20234;-75
2023/01/24 03:05:06;;;;;;;3.40;3.10;;;;;;;4.41;77.03;95851.91;5114319;28;20203;-75
2023/01/24 03:07:41;;;;;;;2.70;2.50;;;;;;;4.45;76.84;95850.19;5114108;28;20548;-75
2023/01/24 03:10:10;;;;;;;2.90;2.70;;;;;;;4.41;76.68;95852.69;5114005;28;20188;-75
2023/01/24 03:34:45;;;;;;;2.42;2.33;;;;;;;3.95;79.10;95852.47;5118086;28;20200;-75
2023/01/24 03:37:12;;;;;;;2.78;2.58;;;;;;;3.86;79.14;95855.06;5118339;28;20272;-73
2023/01/24 03:39:58;;;;;;;2.80;2.60;;;;;;;3.82;79.06;95860.28;5119363;28;20273;-73
2023/01/24 03:42:27;;;;;;;2.40;2.20;;;;;;;3.77;78.97;95862.25;5119455;28;20606;-74
2023/01/24 03:44:53;;;;;;;2.50;2.30;;;;;;;3.77;79.44;95857.59;5118022;28;20609;-74
2023/01/24 03:47:22;;;;;;;2.67;2.47;;;;;;;3.89;78.88;95848.22;5118161;28;20211;-74
2023/01/24 03:52:32;;;;;;;2.50;2.33;;;;;;;4.00;78.68;95846.97;5117077;28;20619;-75
2023/01/24 03:55:00;;;;;;;2.88;2.67;;;;;;;3.98;78.37;95846.44;5118418;28;20203;-74
2023/01/24 03:57:28;;;;;;;2.42;2.22;;;;;;;3.93;78.50;95838.34;5118050;28;20243;-74
2023/01/24 03:59:54;;;;;;;2.58;2.38;;;;;;;3.93;78.46;95843.78;5117850;28;20172;-74
2023/01/24 04:02:23;;;;;;;2.70;2.50;;;;;;;3.88;78.49;95841.91;5117485;28;20184;-72
2023/01/24 04:07:46;;;;;;;2.55;2.35;;;;;;;3.82;79.30;95832.19;5055461;28;20190;-75
2023/01/24 04:10:13;;;;;;;2.75;2.55;;;;;;;3.85;79.35;95835.16;5097087;28;20204;-75
2023/01/24 04:12:40;;;;;;;2.65;2.45;;;;;;;3.98;78.64;95836.34;5117208;28;20200;-75
2023/01/24 04:15:12;;;;;;;3.00;2.80;;;;;;;3.96;78.34;95833.09;5117932;27;20204;-75
2023/01/24 04:17:41;;;;;;;3.00;2.80;;;;;;;4.00;78.50;95836.88;5117567;28;20199;-74
2023/01/24 04:20:09;;;;;;;2.78;2.58;;;;;;;3.91;78.67;95833.16;5117910;28;20179;-75
2023/01/24 04:22:35;;;;;;;2.72;2.53;;;;;;;3.90;78.24;95850.63;5117675;28;20256;-75
2023/01/24 04:25:02;;;;;;;2.78;2.58;;;;;;;3.84;78.89;95836.22;5117169;28;20206;-75
2023/01/24 04:27:29;;;;;;;3.22;2.95;;;;;;;3.83;78.44;95836.53;5116366;28;20211;-74
2023/01/24 04:29:56;;;;;;;2.70;2.50;;;;;;;3.60;78.75;95833.53;5116628;28;20206;-74
2023/01/24 04:32:22;;;;;;;2.75;2.55;;;;;;;3.62;79.42;95830.50;5116565;28;20208;-73
2023/01/24 04:34:51;;;;;;;3.15;2.95;;;;;;;3.54;79.68;95837.41;5116365;28;20216;-74
2023/01/24 04:37:17;;;;;;;3.17;2.97;;;;;;;3.54;79.75;95845.56;5116554;28;20200;-73
2023/01/24 04:39:44;;;;;;;3.28;3.08;;;;;;;3.51;80.42;95837.16;5115774;28;20195;-73
2023/01/24 04:42:11;;;;;;;2.85;2.67;;;;;;;3.53;79.90;95843.16;5116250;28;20196;-75
2023/01/24 04:44:38;;;;;;;3.22;2.92;;;;;;;3.55;79.63;95849.91;5116326;28;20199;-74
2023/01/24 04:47:05;;;;;;;3.17;2.97;;;;;;;3.51;79.67;95850.78;5116877;28;20204;-74
2023/01/24 04:49:32;;;;;;;3.20;3.00;;;;;;;3.53;80.05;95849.41;5116195;28;20187;-74
2023/01/24 04:52:00;;;;;;;3.10;2.90;;;;;;;3.53;79.89;95845.88;5116997;28;20194;-74
2023/01/24 04:54:27;;;;;;;3.10;2.90;;;;;;;3.50;79.95;95841.00;5116238;28;20218;-74
2023/01/24 04:56:54;;;;;;;2.63;2.45;;;;;;;3.48;79.80;95843.19;5116014;28;20211;-74
2023/01/24 04:59:20;;;;;;;2.45;2.35;;;;;;;3.45;79.68;95849.22;5115402;28;20231;-75
2023/01/24 05:01:47;;;;;;;2.72;2.53;;;;;;;3.32;80.30;95854.25;5116803;28;20180;-75
2023/01/24 05:04:15;;;;;;;2.83;2.63;;;;;;;3.30;80.06;95851.00;5115606;28;20596;-75
2023/01/24 05:06:42;;;;;;;2.88;2.67;;;;;;;3.39;80.69;95856.66;5116034;28;20291;-73
2023/01/24 05:09:11;;;;;;;2.95;2.75;;;;;;;3.44;80.12;95853.88;5115781;28;20543;-70
2023/01/24 05:11:37;;;;;;;3.00;2.80;;;;;;;3.37;80.02;95858.84;5115439;28;20439;-75
2023/01/24 05:14:04;;;;;;;3.20;3.00;;;;;;;3.35;80.31;95861.88;5115535;28;20227;-75
2023/01/24 05:16:31;;;;;;;3.42;3.13;;;;;;;3.49;80.37;95869.38;5116578;28;20188;-74
2023/01/24 05:18:58;;;;;;;3.15;2.95;;;;;;;3.53;79.37;95881.34;5117451;28;20192;-75
2023/01/24 05:21:25;;;;;;;3.63;3.33;;;;;;;3.62;79.43;95885.03;5116548;28;20226;-75
2023/01/24 05:23:53;;;;;;;2.90;2.70;;;;;;;3.64;78.94;95893.78;5116261;28;20200;-75
2023/01/24 05:26:23;;;;;;;3.42;3.20;;;;;;;3.69;78.73;95896.44;5115219;28;20211;-73
2023/01/24 05:28:50;;;;;;;3.58;3.28;;;;;;;3.80;78.54;95910.78;5116635;28;20205;-72
2023/01/24 05:31:17;;;;;;;3.33;3.03;;;;;;;3.86;77.68;95912.38;5115607;28;20199;-73
2023/01/24 05:33:44;;;;;;;3.20;2.97;;;;;;;3.87;77.70;95913.97;5117266;28;20226;-73
2023/01/24 05:36:12;;;;;;;3.20;3.00;;;;;;;3.84;77.53;95915.38;5115502;28;20214;-73
2023/01/24 05:38:39;;;;;;;3.72;3.42;;;;;;;3.71;77.75;95905.16;5116210;28;20206;-73
2023/01/24 05:41:08;;;;;;;3.80;3.40;;;;;;;3.78;77.70;95910.28;5116162;28;20195;-74
2023/01/24 05:43:37;;;;;;;4.28;3.88;;;;;;;3.68;77.87;95911.19;5115426;28;20256;-73
2023/01/24 05:46:06;;;;;;;3.45;3.15;;;;;;;3.66;78.29;95910.66;5115284;28;20249;-73
2023/01/24 05:48:32;;;;;;;3.00;2.80;;;;;;;3.59;78.02;95916.47;5116591;28;20188;-72
2023/01/24 05:51:00;;;;;;;3.28;2.95;;;;;;;3.55;78.00;95915.38;5116112;28;20179;-72
2023/01/24 05:53:27;;;;;;;3.30;2.80;;;;;;;3.53;79.00;95919.53;5114995;28;20196;-73
2023/01/24 05:55:57;;;;;;;3.28;2.97;;;;;;;3.41;78.99;95919.06;5114797;28;20204;-73
2023/01/24 05:58:25;;;;;;;3.75;3.17;;;;;;;3.46;79.28;95927.22;5114815;28;20231;-73
2023/01/24 06:00:53;;;;;;;3.30;3.00;;;;;;;3.49;79.32;95923.94;5115220;28;20194;-73
2023/01/24 06:03:20;;;;;;;3.75;3.47;;;;;;;3.45;78.97;95929.16;5115936;28;20190;-73
2023/01/24 06:05:47;;;;;;;3.92;3.63;;;;;;;3.30;79.86;95932.78;5114656;28;20195;-73
2023/01/24 06:08:15;;;;;;;3.63;3.33;;;;;;;3.25;80.05;95938.31;5115025;28;20188;-72
2023/01/24 06:10:42;;;;;;;3.17;2.90;;;;;;;3.27;80.07;95933.38;5115686;28;20192;-73
2023/01/24 06:13:09;;;;;;;3.92;3.63;;;;;;;3.31;79.67;95937.16;5115816;28;20503;-73
2023/01/24 06:15:35;;;;;;;3.40;3.10;;;;;;;3.36;79.87;95930.84;5114574;28;20243;-73
2023/01/24 06:18:04;;;;;;;3.20;3.00;;;;;;;3.28;79.62;95934.19;5114457;28;20192;-73
2023/01/24 06:20:31;;;;;;;3.05;2.80;;;;;;;3.18;80.17;95942.44;5115379;28;20638;-73
2023/01/24 06:23:01;;;;;;;4.45;4.05;;;;;;;3.20;80.76;95940.28;5114777;28;20538;-73
2023/01/24 06:25:28;;;;;;;3.45;3.25;;;;;;;3.26;80.65;95945.38;5114981;28;20258;-73
2023/01/24 06:27:55;;;;;;;3.80;3.50;;;;;;;3.19;80.23;95944.88;5115608;28;20253;-73
2023/01/24 06:30:23;;;;;;;4.22;3.90;;;;;;;3.31;81.35;95956.25;5114770;28;20188;-73
2023/01/24 06:33:12;;;;;;;4.00;3.70;;;;;;;3.35;81.28;95968.22;5114805;28;20195;-73
2023/01/24 06:35:45;;;;;;;3.78;3.50;;;;;;;3.37;81.33;95968.72;5115623;28;20212;-73
2023/01/24 06:38:20;;;;;;;3.80;3.50;;;;;;;3.25;81.26;95971.03;5114514;28;20204;-73
2023/01/24 06:40:47;;;;;;;4.45;4.15;;;;;;;3.12;81.47;95972.50;5114948;28;20195;-73
2023/01/24 06:43:14;;;;;;;3.70;3.42;;;;;;;2.98;82.02;95974.22;5114967;28;20196;-73
2023/01/24 06:45:41;;;;;;;3.53;3.25;;;;;;;2.89;83.25;95971.25;5115451;28;20191;-72
2023/01/24 06:48:09;;;;;;;3.50;3.30;;;;;;;2.93;82.60;95976.97;5114767;28;20606;-73
2023/01/24 06:50:36;;;;;;;4.03;3.72;;;;;;;2.90;82.84;95977.53;5115548;28;20184;-73
2023/01/24 06:53:02;;;;;;;3.97;3.67;;;;;;;2.79;82.78;95984.94;5114529;28;20248;-73
2023/01/24 06:55:29;;;;;;;3.13;2.83;;;;;;;2.82;83.19;95983.56;5115034;28;20535;-73
2023/01/24 06:57:56;;;;;;;4.55;4.15;;;;;;;2.81;82.84;95980.03;5114930;28;20239;-73
2023/01/24 07:00:23;;;;;;;3.83;3.58;;;;;;;2.75;82.30;95983.88;5114527;28;20184;-73
2023/01/24 07:02:57;;;;;;;3.67;3.38;;;;;;;2.82;83.15;95981.66;5115904;28;20184;-73
2023/01/24 07:05:26;;;;;;;3.42;3.22;;;;;;;2.85;82.95;95991.19;5119466;28;20247;-73
2023/01/24 07:07:53;;;;;;;3.08;2.88;;;;;;;2.55;83.11;95986.72;5118844;28;20511;-73
2023/01/24 07:10:19;;;;;;;3.70;3.40;;;;;;;2.61;86.02;95980.97;5119178;28;20203;-72
2023/01/24 07:12:46;;;;;;;4.13;3.83;;;;;;;2.58;83.50;95992.41;5119255;28;20192;-73
2023/01/24 07:15:13;;;;;;;4.40;4.00;;;;;;;2.54;84.48;95990.50;5117813;28;20220;-74
2023/01/24 07:17:40;;;;;;;3.90;3.50;;;;;;;2.52;84.00;95993.53;5119061;28;20248;-73
2023/01/24 07:20:09;;;;;;;3.88;3.58;;;;;;;2.38;84.46;95990.59;5119088;28;20183;-73
2023/01/24 07:22:40;;;;;;;4.50;4.10;;;;;;;2.39;85.08;95994.13;5119024;28;20195;-73
2023/01/24 07:25:13;;;;;;;4.28;3.90;;;;;;;2.39;84.71;95996.84;5118611;28;20184;-73
2023/01/24 07:27:40;;;;;;;4.43;4.13;;;;;;;2.41;86.41;95991.94;5118954;28;20188;-73
2023/01/24 07:30:08;;;;;;;4.57;4.18;;;;;;;2.52;84.53;96006.34;5119134;28;20188;-73
2023/01/24 07:32:35;;;;;;;4.63;4.22;;;;;;;2.56;84.38;96008.22;5119176;28;20307;-73
2023/01/24 07:35:02;;;;;;;4.28;3.97;;;;;;;2.50;85.10;96006.59;5118562;28;20226;-74
2023/01/24 07:37:29;;;;;;;4.65;4.25;;;;;;;2.47;84.89;96003.63;5118448;28;20214;-73
2023/01/24 07:39:57;;;;;;;3.72;3.50;;;;;;;2.42;85.04;96018.06;5117917;28;20195;-73
2023/01/24 07:42:24;;;;;;;4.43;4.03;;;;;;;2.44;84.83;96009.66;5118487;28;20188;-73
2023/01/24 07:44:51;;;;;;;4.35;4.00;;;;;;;2.43;85.17;96016.97;5118573;28;20196;-73
2023/01/24 07:47:18;;;;;;;4.53;4.13;;;;;;;2.48;85.57;96022.41;5117561;28;20192;-73
2023/01/24 07:49:45;;;;;;;4.90;4.50;;;;;;;2.54;85.42;96023.19;5117372;28;20223;-73
2023/01/24 07:52:11;;;;;;;4.75;4.35;;;;;;;2.48;84.94;96027.06;5117480;28;20203;-73
2023/01/24 07:54:38;;;;;;;4.50;4.13;;;;;;;2.44;85.08;96025.97;5117497;28;20218;-73
2023/01/24 07:57:07;;;;;;;4.28;3.97;;;;;;;2.56;85.13;96029.19;5118395;28;20530;-73
2023/01/24 07:59:34;;;;;;;4.90;4.50;;;;;;;2.60;84.49;96032.97;5117347;28;20199;-73
2023/01/24 08:02:01;;;;;;;4.43;4.00;;;;;;;2.49;84.84;96037.66;5117874;28;20191;-73
2023/01/24 08:04:28;;;;;;;4.82;4.43;;;;;;;2.38;85.04;96041.50;5118093;28;20180;-73
2023/01/24 08:09:38;;;;;;;4.75;4.35;;;;;;;2.47;85.34;96039.00;5117352;28;20290;-74
2023/01/24 08:12:07;;;;;;;4.50;4.10;;;;;;;2.45;85.75;96041.22;5116868;28;20209;-74
2023/01/24 08:14:34;;;;;;;4.18;3.80;;;;;;;2.46;85.32;96045.56;5117126;28;20208;-74
2023/01/24 08:17:00;;;;;;;3.80;3.50;;;;;;;2.52;85.00;96047.19;5116577;28;20611;-74
2023/01/24 08:19:27;;;;;;;4.10;3.80;;;;;;;2.59;85.58;96040.34;5117725;28;20191;-74
2023/01/24 08:21:54;;;;;;;4.30;3.90;;;;;;;2.65;84.60;96039.25;5117372;28;20188;-74
2023/01/24 08:24:21;;;;;;;4.78;4.43;;;;;;;2.66;84.79;96045.50;5116968;28;20203;-74
2023/01/24 08:26:48;;;;;;;4.45;4.05;;;;;;;2.66;84.37;96037.31;5117618;28;20207;-74
2023/01/24 08:29:17;;;;;;;4.43;4.10;;;;;;;2.80;84.58;96048.44;5117338;28;20222;-74
2023/01/24 08:31:44;;;;;;;4.10;3.80;;;;;;;2.84;83.80;96042.16;5116693;28;20196;-74
2023/01/24 08:34:19;;;;;;;4.40;4.10;;;;;;;2.94;83.43;96041.28;5116675;28;20200;-74
2023/01/24 08:36:46;;;;;;;5.80;5.30;;;;;;;3.02;83.05;96050.78;5116672;28;20187;-74
2023/01/24 08:39:13;;;;;;;5.90;5.40;;;;;;;3.02;83.59;96057.03;5117402;28;20192;-74
2023/01/24 08:41:40;;;;;;;6.97;6.38;;;;;;;3.03;83.53;96053.22;5116413;28;20195;-74
2023/01/24 08:44:07;;;;;;;4.75;4.35;;;;;;;3.04;83.13;96049.38;5116352;28;20208;-74
2023/01/24 08:46:37;;;;;;;4.82;4.43;;;;;;;3.05;83.70;96052.91;5116393;28;20207;-74
2023/01/24 08:49:04;;;;;;;4.93;4.43;;;;;;;3.02;82.84;96057.03;5117496;28;20180;-74
2023/01/24 08:51:31;;;;;;;3.50;3.30;;;;;;;2.97;82.84;96050.78;5117346;28;20184;-74
2023/01/24 08:53:58;;;;;;;3.90;3.60;;;;;;;2.95;82.33;96059.25;5117128;28;20592;-74
2023/01/24 08:56:24;;;;;;;3.70;3.40;;;;;;;2.92;83.14;96065.25;5116905;28;20300;-74
2023/01/24 08:58:51;;;;;;;3.20;2.90;;;;;;;2.77;82.88;96062.63;5115949;28;20239;-74
2023/01/24 09:01:20;;;;;;;3.60;3.40;;;;;;;2.79;83.70;96063.94;5116161;28;20215;-75
2023/01/24 09:03:49;;;;;;;3.60;3.30;;;;;;;2.88;83.74;96061.47;5115928;28;20208;-74
2023/01/24 09:06:16;;;;;;;4.00;3.60;;;;;;;3.01;83.33;96062.75;5116240;28;20188;-74
2023/01/24 09:08:42;;;;;;;4.45;4.05;;;;;;;3.01;81.94;96055.41;5116718;28;20211;-74
2023/01/24 09:11:09;;;;;;;4.70;4.30;;;;;;;3.08;83.01;96058.63;5115677;28;20209;-74
2023/01/24 09:13:36;;;;;;;3.80;3.50;;;;;;;3.02;82.94;96056.22;5116345;28;20200;-74
2023/01/24 09:16:03;;;;;;;3.35;3.08;;;;;;;2.98;82.84;96055.97;5116017;28;20392;-74
2023/01/24 09:18:29;;;;;;;3.10;2.90;;;;;;;2.95;82.53;96056.53;5115409;28;20199;-74
2023/01/24 09:21:02;;;;;;;3.55;3.25;;;;;;;3.00;82.73;96056.50;5116398;28;20611;-74
2023/01/24 09:23:29;;;;;;;3.10;2.90;;;;;;;3.05;82.30;96059.22;5116031;28;20548;-74
2023/01/24 09:25:56;;;;;;;3.30;3.00;;;;;;;3.06;82.05;96051.84;5115100;28;20196;-74
2023/01/24 09:28:23;;;;;;;3.60;3.30;;;;;;;3.23;81.92;96051.44;5115422;28;20218;-74
2023/01/24 09:30:50;;;;;;;3.90;3.60;;;;;;;3.13;81.32;96055.88;5115037;28;20215;-74
2023/01/24 09:33:17;;;;;;;3.58;3.28;;;;;;;3.01;82.40;96055.41;5116318;28;20188;-74
2023/01/24 09:35:52;;;;;;;4.22;3.88;;;;;;;3.13;82.14;96049.63;5116221;28;20203;-74
2023/01/24 09:38:22;;;;;;;3.70;3.40;;;;;;;3.16;81.77;96045.50;5116491;28;20197;-74
2023/01/24 09:40:54;;;;;;;4.75;4.30;;;;;;;3.18;81.54;96055.03;5115558;28;20318;-74
2023/01/24 09:43:37;;;;;;;3.90;3.60;;;;;;;3.16;82.01;96049.06;5115308;28;20196;-74
2023/01/24 09:46:08;;;;;;;3.80;3.50;;;;;;;3.16;81.30;96048.22;5115767;28;20593;-74
2023/01/24 09:48:34;;;;;;;4.55;4.10;;;;;;;3.21;81.62;96038.13;5116250;28;20667;-75
2023/01/24 09:51:05;;;;;;;4.28;3.97;;;;;;;3.21;81.15;96037.31;5115494;28;20202;-74
2023/01/24 09:53:40;;;;;;;3.90;3.60;;;;;;;3.27;81.94;96044.38;5115984;28;20175;-74
2023/01/24 09:56:12;;;;;;;4.00;3.70;;;;;;;3.28;81.04;96040.53;5114750;28;20215;-74
2023/01/24 09:58:43;;;;;;;3.90;3.60;;;;;;;3.18;81.65;96035.94;5114955;28;20292;-74
2023/01/24 10:01:12;;;;;;;3.70;3.40;;;;;;;3.27;81.65;96041.63;5115079;28;20192;-74
2023/01/24 10:03:40;;;;;;;3.80;3.50;;;;;;;3.34;80.90;96037.50;5115972;28;20192;-74
2023/01/24 10:06:11;;;;;;;3.70;3.47;;;;;;;3.32;81.22;96039.69;5114864;28;20187;-74
2023/01/24 10:08:46;;;;;;;3.53;3.27;;;;;;;3.37;80.90;96028.72;5115227;28;20207;-74
2023/01/24 10:11:28;;;;;;;3.38;3.08;;;;;;;3.39;80.78;96033.91;5115789;28;20179;-74
2023/01/24 10:14:07;;;;;;;4.05;3.70;;;;;;;3.49;80.72;96028.38;5114465;28;20188;-74
2023/01/24 10:16:49;;;;;;;3.88;3.58;;;;;;;3.50;80.93;96024.56;5115418;28;20199;-74
2023/01/24 10:19:24;;;;;;;4.18;3.88;;;;;;;3.45;80.45;96021.88;5115390;28;20187;-74
2023/01/24 10:22:01;;;;;;;4.18;3.88;;;;;;;3.34;81.27;96023.88;5114493;28;20571;-74
2023/01/24 10:24:33;;;;;;;4.80;4.40;;;;;;;3.32;81.84;96017.06;5114920;28;20199;-74
2023/01/24 10:27:00;;;;;;;4.13;3.80;;;;;;;3.44;80.98;96019.41;5115087;28;20187;-74
2023/01/24 10:29:31;;;;;;;3.30;3.10;;;;;;;3.14;80.67;96019.34;5114891;28;20207;-74
2023/01/24 10:32:01;;;;;;;3.83;3.53;;;;;;;3.21;81.83;96021.75;5115627;28;20233;-74
2023/01/24 10:34:32;;;;;;;3.72;3.42;;;;;;;3.38;81.93;96007.75;5115950;28;20253;-74
2023/01/24 10:37:01;;;;;;;3.13;2.92;;;;;;;3.48;81.36;96010.38;5114752;28;20216;-74
2023/01/24 10:39:30;;;;;;;3.50;3.15;;;;;;;3.62;80.63;96014.06;5119374;28;20183;-74
2023/01/24 10:41:56;;;;;;;2.55;2.40;;;;;;;3.39;79.92;96006.63;5118986;28;20196;-74
2023/01/24 10:44:26;;;;;;;2.50;2.33;;;;;;;3.26;80.73;96007.28;5102402;28;20260;-74
2023/01/24 10:47:22;;;;;;;2.78;2.58;;;;;;;3.22;80.43;96006.22;5118362;28;20613;-74
2023/01/24 10:49:52;;;;;;;3.17;2.97;;;;;;;3.33;80.06;96005.84;5118690;28;20294;-74
2023/01/24 10:52:19;;;;;;;3.17;2.97;;;;;;;3.50;80.66;96004.66;5119184;28;20187;-74
2023/01/24 10:54:52;;;;;;;2.80;2.60;;;;;;;3.46;79.94;96003.59;5119232;28;20546;-74
2023/01/24 10:57:30;;;;;;;3.22;2.92;;;;;;;3.47;80.49;96002.47;5119306;28;20679;-74
2023/01/24 11:00:02;;;;;;;3.17;2.90;;;;;;;3.54;80.22;96003.78;5118096;28;20219;-74
2023/01/24 11:02:33;;;;;;;3.47;3.20;;;;;;;3.71;80.13;95991.66;5101281;28;20199;-74
2023/01/24 11:05:01;;;;;;;3.45;3.15;;;;;;;3.77;79.82;96001.41;5118505;28;20192;-74
2023/01/24 11:07:29;;;;;;;3.70;3.42;;;;;;;3.77;79.46;95994.03;5117983;28;20541;-74
2023/01/24 11:10:00;;;;;;;3.20;2.90;;;;;;;3.79;78.74;96002.75;5119099;28;20180;-74
2023/01/24 11:12:27;;;;;;;3.05;2.85;;;;;;;3.76;79.71;95999.78;5118263;28;20606;-74
2023/01/24 11:14:54;;;;;;;3.90;3.60;;;;;;;3.74;79.25;95994.63;5118270;28;20215;-74
2023/01/24 11:17:32;;;;;;;3.28;3.08;;;;;;;3.67;78.59;95990.56;5117781;28;20207;-75
2023/01/24 11:19:59;;;;;;;3.00;2.80;;;;;;;3.67;78.44;95996.88;5118968;28;20187;-75
2023/01/24 11:22:33;;;;;;;3.20;3.00;;;;;;;3.75;78.78;95985.34;5118789;28;20203;-74
2023/01/24 11:25:03;;;;;;;3.35;3.15;;;;;;;3.81;78.82;95980.63;5118087;28;20298;-74
2023/01/24 11:27:31;;;;;;;3.30;3.00;;;;;;;3.77;77.70;95985.84;5117861;28;20253;-75
2023/01/24 11:30:14;;;;;;;4.13;3.72;;;;;;;3.81;78.20;95981.47;5118687;28;20191;-74
2023/01/24 11:32:49;;;;;;;4.18;3.85;;;;;;;3.67;78.23;95976.94;5118896;28;20192;-74
2023/01/24 11:35:20;;;;;;;5.72;5.03;;;;;;;3.65;78.60;95979.16;5118655;28;20187;-74
2023/01/24 11:38:02;;;;;;;3.38;3.05;;;;;;;3.57;78.19;95975.13;5117452;28;20211;-74
2023/01/24 11:40:36;;;;;;;3.40;2.90;;;;;;;3.65;78.43;95979.97;5118644;28;20200;-74
2023/01/24 11:43:14;;;;;;;4.97;2.90;;;;;;;3.53;77.83;95983.06;5118757;28;20252;-74
2023/01/24 11:45:56;;;;;;;2.90;2.70;;;;;;;3.44;78.57;95978.50;5118319;28;20176;-74
2023/01/24 11:48:23;;;;;;;3.50;3.20;;;;;;;3.46;79.21;95973.59;5118128;28;20195;-74
2023/01/24 11:50:58;;;;;;;2.65;2.45;;;;;;;3.38;78.56;95975.84;5117394;28;20192;-75
2023/01/24 11:53:36;;;;;;;2.30;2.20;;;;;;;3.29;79.08;95976.72;5118647;28;20198;-74
2023/01/24 11:56:30;;;;;;;2.33;2.15;;;;;;;3.19;78.97;95976.78;5118371;28;20279;-75
2023/01/24 11:59:31;;;;;;;3.00;2.80;;;;;;;3.19;79.69;95971.34;5118569;28;20254;-75
2023/01/24 12:02:28;;;;;;;4.50;4.15;;;;;;;3.28;79.13;95973.19;5118091;28;20194;-75
2023/01/24 12:05:26;;;;;;;3.45;3.15;;;;;;;3.38;79.85;95973.09;5118349;28;20233;-74
2023/01/24 12:08:22;;;;;;;3.20;3.00;;;;;;;3.28;79.60;95978.63;5118127;28;20183;-74
2023/01/24 12:11:13;;;;;;;3.40;3.10;;;;;;;3.30;79.65;95968.25;5118230;28;20187;-74
2023/01/24 12:14:12;;;;;;;3.03;2.83;;;;;;;3.23;79.72;95973.22;5118130;28;20260;-75
2023/01/24 12:17:04;;;;;;;5.07;4.63;;;;;;;3.09;79.10;95974.97;5117648;28;20532;-74
2023/01/24 12:19:59;;;;;;;3.50;3.30;;;;;;;3.16;78.95;95978.19;5118124;28;20272;-73
2023/01/24 12:22:44;;;;;;;3.63;3.33;;;;;;;3.35;79.16;95970.94;5117425;28;20202;-74
2023/01/24 12:25:17;;;;;;;3.95;3.65;;;;;;;3.48;79.33;95976.84;5116459;28;20192;-74
2023/01/24 12:27:46;;;;;;;3.25;2.95;;;;;;;3.56;78.26;95968.88;5116403;28;20199;-75
2023/01/24 12:30:20;;;;;;;2.83;2.63;;;;;;;3.56;77.83;95977.06;5117665;28;20220;-75
2023/01/24 12:32:50;;;;;;;2.65;2.45;;;;;;;3.41;77.70;95966.25;5116680;28;20245;-75
2023/01/24 12:35:22;;;;;;;3.10;2.80;;;;;;;3.23;78.26;95975.97;5117230;28;20179;-75